createdAt,value
2022-10-18T00:01:44.173Z,11.82
2022-10-18T00:03:45.155Z,11.76
2022-10-18T00:05:47.043Z,11.69
2022-10-18T00:07:48.496Z,11.64
2022-10-18T00:09:50.236Z,11.72
2022-10-18T00:11:51.154Z,11.75
2022-10-18T00:13:52.321Z,11.65
2022-10-18T00:15:53.292Z,11.55
2022-10-18T00:17:54.735Z,11.56
2022-10-18T00:19:56.018Z,11.58
2022-10-18T00:21:57.222Z,11.59
2022-10-18T00:23:58.832Z,11.53
2022-10-18T00:26:00.094Z,11.53
2022-10-18T00:28:01.772Z,11.53
2022-10-18T00:30:03.568Z,11.6
2022-10-18T00:32:05.205Z,11.64
2022-10-18T00:34:06.253Z,11.64
2022-10-18T00:36:07.947Z,11.64
2022-10-18T00:38:09.825Z,11.59
2022-10-18T00:40:10.967Z,11.51
2022-10-18T00:42:12.660Z,11.59
2022-10-18T00:44:13.605Z,11.71
2022-10-18T00:46:15.327Z,11.73
2022-10-18T00:48:16.304Z,11.73
2022-10-18T00:50:17.970Z,11.6
2022-10-18T00:52:19.606Z,11.54
2022-10-18T00:54:21.155Z,11.51
2022-10-18T00:56:22.459Z,11.45
2022-10-18T00:58:23.959Z,11.54
2022-10-18T01:00:24.882Z,11.5
2022-10-18T01:02:26.507Z,11.52
2022-10-18T01:04:27.763Z,11.47
2022-10-18T01:06:29.489Z,11.39
2022-10-18T01:08:30.702Z,11.43
2022-10-18T01:10:32.086Z,11.58
2022-10-18T01:12:33.376Z,11.54
2022-10-18T01:14:34.907Z,11.45
2022-10-18T01:16:36.783Z,11.45
2022-10-18T01:18:38.458Z,11.75
2022-10-18T01:21:23.396Z,11.79
2022-10-18T01:23:24.305Z,11.83
2022-10-18T01:25:26.188Z,11.93
2022-10-18T01:27:27.931Z,11.96
2022-10-18T01:29:29.291Z,11.98
2022-10-18T01:31:31.043Z,11.93
2022-10-18T01:33:32.357Z,11.7
2022-10-18T01:35:34.207Z,11.65
2022-10-18T01:37:35.387Z,11.59
2022-10-18T01:39:36.585Z,11.52
2022-10-18T01:41:37.667Z,11.54
2022-10-18T01:43:39.462Z,11.52
2022-10-18T01:45:41.266Z,11.51
2022-10-18T01:47:42.619Z,11.54
2022-10-18T01:49:43.989Z,11.66
2022-10-18T01:51:45.378Z,11.73
2022-10-18T01:53:46.737Z,11.8
2022-10-18T01:55:48.007Z,11.54
2022-10-18T01:57:48.914Z,11.77
2022-10-18T01:59:49.911Z,11.73
2022-10-18T02:01:51.478Z,11.83
2022-10-18T02:03:53.036Z,11.82
2022-10-18T02:05:54.664Z,11.79
2022-10-18T02:08:05.542Z,11.65
2022-10-18T02:09:57.333Z,11.56
2022-10-18T02:11:58.264Z,11.57
2022-10-18T02:13:59.516Z,11.52
2022-10-18T02:16:01.341Z,11.46
2022-10-18T02:18:02.996Z,11.48
2022-10-18T02:20:04.447Z,11.54
2022-10-18T02:22:06.148Z,11.54
2022-10-18T02:24:07.712Z,11.72
2022-10-18T02:26:09.024Z,11.74
2022-10-18T02:28:10.576Z,11.75
2022-10-18T02:30:11.565Z,11.69
2022-10-18T02:32:12.806Z,11.69
2022-10-18T02:34:14.595Z,11.65
2022-10-18T02:36:24.747Z,11.64
2022-10-18T02:38:17.244Z,11.68
2022-10-18T02:40:18.578Z,11.82
2022-10-18T02:42:20.049Z,11.83
2022-10-18T02:44:21.400Z,11.64
2022-10-18T02:46:22.959Z,11.57
2022-10-18T02:48:24.338Z,11.57
2022-10-18T02:50:25.603Z,11.57
2022-10-18T02:52:27.023Z,11.6
2022-10-18T02:54:28.176Z,11.63
2022-10-18T02:56:29.137Z,11.7
2022-10-18T02:58:30.332Z,11.69
2022-10-18T03:00:31.957Z,11.76
2022-10-18T03:02:33.832Z,11.95
2022-10-18T03:04:34.762Z,12.06
2022-10-18T03:06:36.480Z,12.08
2022-10-18T03:08:37.593Z,12.05
2022-10-18T03:10:39.235Z,12.05
2022-10-18T03:12:40.499Z,12.05
2022-10-18T03:14:42.151Z,12.1
2022-10-18T03:16:43.407Z,12.2
2022-10-18T03:18:44.915Z,12.2
2022-10-18T03:20:46.027Z,12.21
2022-10-18T03:22:47.327Z,12.11
2022-10-18T03:24:48.873Z,12.12
2022-10-18T03:26:50.258Z,12.13
2022-10-18T03:28:51.811Z,12.3
2022-10-18T03:30:53.077Z,12.51
2022-10-18T03:32:54.137Z,12.52
2022-10-18T03:34:55.333Z,12.5
2022-10-18T03:36:56.978Z,12.34
2022-10-18T03:38:58.853Z,12.33
2022-10-18T03:40:59.885Z,12.4
2022-10-18T03:43:01.085Z,12.38
2022-10-18T03:45:02.669Z,12.43
2022-10-18T03:47:03.984Z,12.47
2022-10-18T03:51:06.431Z,12.36
2022-10-18T03:53:07.801Z,12.31
2022-10-18T03:55:09.022Z,12.2
2022-10-18T03:57:09.963Z,12.19
2022-10-18T03:59:11.385Z,12.18
2022-10-18T04:01:12.608Z,12.26
2022-10-18T04:03:13.775Z,12.35
2022-10-18T04:05:15.133Z,12.39
2022-10-18T04:07:16.067Z,12.35
2022-10-18T04:09:17.784Z,12.27
2022-10-18T04:11:19.347Z,12.33
2022-10-18T04:13:20.975Z,12.38
2022-10-18T04:15:22.461Z,12.56
2022-10-18T04:17:23.541Z,12.75
2022-10-18T04:19:25.200Z,12.74
2022-10-18T04:21:26.687Z,12.78
2022-10-18T04:23:27.656Z,12.38
2022-10-18T04:25:29.096Z,12.29
2022-10-18T04:27:30.741Z,12.29
2022-10-18T04:29:31.913Z,12.27
2022-10-18T04:31:33.324Z,12.21
2022-10-18T04:33:35.155Z,12.29
2022-10-18T04:35:36.444Z,12.28
2022-10-18T04:37:37.561Z,12.28
2022-10-18T04:39:38.996Z,12.25
2022-10-18T04:41:40.152Z,12.26
2022-10-18T04:43:41.354Z,12.25
2022-10-18T04:45:42.979Z,12.31
2022-10-18T04:47:44.233Z,12.29
2022-10-18T04:49:45.729Z,12.27
2022-10-18T04:51:46.838Z,12.38
2022-10-18T04:53:48.093Z,12.39
2022-10-18T04:55:49.511Z,12.44
2022-10-18T04:57:50.592Z,12.52
2022-10-18T04:59:51.966Z,12.57
2022-10-18T05:01:53.728Z,12.6
2022-10-18T05:03:55.055Z,12.61
2022-10-18T05:06:01.539Z,12.59
2022-10-18T05:07:57.886Z,12.59
2022-10-18T05:09:59.162Z,12.43
2022-10-18T05:12:00.958Z,12.47
2022-10-18T05:14:01.865Z,12.5
2022-10-18T05:16:03.248Z,12.51
2022-10-18T05:18:04.589Z,12.51
2022-10-18T05:20:06.215Z,12.53
2022-10-18T05:22:07.105Z,12.57
2022-10-18T05:24:08.839Z,12.63
2022-10-18T05:26:09.904Z,12.73
2022-10-18T05:28:34.410Z,12.72
2022-10-18T05:30:13.006Z,12.74
2022-10-18T05:32:14.777Z,12.46
2022-10-18T05:34:15.770Z,12.16
2022-10-18T05:36:17.542Z,12.22
2022-10-18T05:38:18.505Z,12.29
2022-10-18T05:40:20.164Z,12.32
2022-10-18T05:42:21.410Z,12.46
2022-10-18T05:44:22.717Z,12.79
2022-10-18T05:46:24.238Z,13.09
2022-10-18T05:48:26.021Z,13.26
2022-10-18T05:50:27.839Z,13.05
2022-10-18T05:52:29.612Z,13.03
2022-10-18T05:54:30.933Z,13.12
2022-10-18T05:56:32.207Z,13.22
2022-10-18T05:58:33.453Z,13.33
2022-10-18T06:00:35.152Z,13.31
2022-10-18T06:02:36.815Z,13.34
2022-10-18T06:04:37.788Z,13.22
2022-10-18T06:06:38.941Z,13.26
2022-10-18T06:08:40.067Z,13.26
2022-10-18T06:10:41.293Z,13.19
2022-10-18T06:14:43.819Z,13.18
2022-10-18T06:16:45.560Z,13.24
2022-10-18T06:18:46.644Z,13.42
2022-10-18T06:20:47.869Z,13.42
2022-10-18T06:22:49.060Z,13.4
2022-10-18T06:24:53.807Z,13.45
2022-10-18T06:26:52.181Z,13.56
2022-10-18T06:28:53.894Z,13.74
2022-10-18T06:30:55.637Z,13.73
2022-10-18T06:32:56.525Z,13.64
2022-10-18T06:34:58.019Z,13.51
2022-10-18T06:36:59.641Z,13.52
2022-10-18T06:39:00.661Z,13.75
2022-10-18T06:41:02.345Z,14.07
2022-10-18T06:43:16.490Z,13.84
2022-10-18T06:45:05.026Z,14.29
2022-10-18T06:47:06.289Z,13.85
2022-10-18T06:49:07.791Z,13.8
2022-10-18T06:51:09.539Z,13.78
2022-10-18T06:53:10.616Z,13.75
2022-10-18T06:55:11.906Z,13.66
2022-10-18T06:57:12.863Z,13.68
2022-10-18T06:59:14.092Z,13.67
2022-10-18T07:01:15.790Z,13.67
2022-10-18T07:03:17.519Z,13.42
2022-10-18T07:05:19.031Z,13.39
2022-10-18T07:07:20.455Z,13.57
2022-10-18T07:09:21.456Z,13.78
2022-10-18T07:11:23.212Z,14.07
2022-10-18T07:13:32.241Z,14.57
2022-10-18T07:15:26.488Z,15.24
2022-10-18T07:17:28.167Z,15.59
2022-10-18T07:19:29.105Z,15.68
2022-10-18T07:21:30.668Z,15.86
2022-10-18T07:23:32.098Z,16.01
2022-10-18T07:25:33.242Z,15.79
2022-10-18T07:27:34.698Z,15.55
2022-10-18T07:29:35.502Z,15.5
2022-10-18T07:31:36.463Z,15.45
2022-10-18T07:33:38.242Z,15.32
2022-10-18T07:35:39.391Z,15.29
2022-10-18T07:37:40.857Z,15.32
2022-10-18T07:39:41.793Z,15.08
2022-10-18T07:41:43.448Z,15.07
2022-10-18T07:45:46.401Z,14.89
2022-10-18T07:47:47.858Z,15.18
2022-10-18T07:49:49.004Z,15.46
2022-10-18T07:51:50.686Z,15.54
2022-10-18T07:53:52.038Z,15.78
2022-10-18T07:57:55.112Z,16.32
2022-10-18T07:59:56.216Z,16.16
2022-10-18T08:01:58.107Z,15.93
2022-10-18T08:04:02.103Z,16.01
2022-10-18T08:06:44.862Z,16.05
2022-10-18T08:08:46.459Z,16.21
2022-10-18T08:10:48.163Z,16.26
2022-10-18T08:12:49.962Z,16.3
2022-10-18T08:14:50.889Z,16.31
2022-10-18T08:16:52.763Z,16.36
2022-10-18T08:18:54.205Z,16.5
2022-10-18T08:20:55.356Z,16.62
2022-10-18T08:23:00.038Z,16.69
2022-10-18T08:24:58.306Z,16.91
2022-10-18T08:26:59.275Z,16.94
2022-10-18T08:29:17.868Z,17.02
2022-10-18T08:31:02.056Z,17.14
2022-10-18T08:33:02.947Z,17.28
2022-10-18T08:35:05.683Z,17.34
2022-10-18T08:37:05.498Z,17.35
2022-10-18T08:39:06.694Z,17.33
2022-10-18T08:41:08.132Z,17.33
2022-10-18T08:43:09.178Z,17.37
2022-10-18T08:45:12.844Z,17.33
2022-10-18T08:47:11.434Z,17.32
2022-10-18T08:49:12.408Z,17.35
2022-10-18T08:51:13.398Z,17.36
2022-10-18T08:53:14.271Z,17.35
2022-10-18T08:55:15.149Z,17.35
2022-10-18T08:57:16.702Z,17.43
2022-10-18T08:59:20.945Z,17.49
2022-10-18T09:01:19.893Z,17.7
2022-10-18T09:03:21.193Z,17.71
2022-10-18T09:05:22.730Z,17.53
2022-10-18T09:07:23.935Z,17.51
2022-10-18T09:09:25.155Z,17.46
2022-10-18T09:11:26.656Z,17.48
2022-10-18T09:13:28.225Z,17.57
2022-10-18T09:15:29.381Z,17.56
2022-10-18T09:17:30.355Z,17.59
2022-10-18T09:19:31.403Z,17.6
2022-10-18T09:21:33.174Z,17.66
2022-10-18T09:23:34.477Z,17.57
2022-10-18T09:25:35.672Z,17.69
2022-10-18T09:27:37.411Z,17.54
2022-10-18T09:29:38.236Z,17.59
2022-10-18T09:31:39.794Z,17.4
2022-10-18T09:33:40.783Z,17.31
2022-10-18T09:35:41.764Z,17.12
2022-10-18T09:37:42.679Z,17.14
2022-10-18T09:39:43.994Z,17.01
2022-10-18T09:41:45.528Z,17.09
2022-10-18T09:43:46.945Z,17.01
2022-10-18T09:45:48.135Z,16.99
2022-10-18T09:47:49.280Z,17.06
2022-10-18T09:49:50.443Z,17.1
2022-10-18T09:51:51.905Z,17.08
2022-10-18T09:53:53.235Z,17.09
2022-10-18T09:55:55.031Z,17.04
2022-10-18T09:57:56.078Z,17.08
2022-10-18T09:59:56.988Z,17.07
2022-10-18T10:01:57.949Z,16.99
2022-10-18T10:04:00.244Z,17.05
2022-10-18T10:06:01.964Z,17.06
2022-10-18T10:08:03.743Z,17.08
2022-10-18T10:10:05.545Z,17.09
2022-10-18T10:12:07.039Z,17.1
2022-10-18T10:14:08.782Z,17.15
2022-10-18T10:16:10.385Z,17.1
2022-10-18T10:18:11.243Z,17.18
2022-10-18T10:20:13.604Z,17.18
2022-10-18T10:22:15.238Z,17.28
2022-10-18T10:24:16.603Z,17.38
2022-10-18T10:26:17.735Z,17.43
2022-10-18T10:28:19.344Z,17.49
2022-10-18T10:30:20.521Z,17.5
2022-10-18T10:32:21.655Z,17.57
2022-10-18T10:34:23.226Z,17.61
2022-10-18T10:36:24.590Z,17.57
2022-10-18T10:38:25.546Z,17.66
2022-10-18T10:40:28.622Z,17.59
2022-10-18T10:42:28.356Z,17.7
2022-10-18T10:44:29.441Z,17.73
2022-10-18T10:46:31.140Z,17.87
2022-10-18T10:48:33.334Z,18.03
2022-10-18T10:52:35.184Z,18.17
2022-10-18T10:54:36.777Z,18.27
2022-10-18T10:56:37.830Z,18.4
2022-10-18T10:58:39.130Z,18.32
2022-10-18T11:00:40.405Z,18.31
2022-10-18T11:02:42.629Z,18.34
2022-10-18T11:04:43.096Z,18.42
2022-10-18T11:06:44.357Z,18.66
2022-10-18T11:10:47.561Z,18.53
2022-10-18T11:12:48.664Z,18.75
2022-10-18T11:14:49.554Z,18.74
2022-10-18T11:16:50.575Z,18.69
2022-10-18T11:18:52.377Z,18.58
2022-10-18T11:20:53.926Z,18.83
2022-10-18T11:22:54.846Z,18.71
2022-10-18T11:24:56.119Z,19.06
2022-10-18T11:26:57.745Z,19.24
2022-10-18T11:28:59.480Z,19.17
2022-10-18T11:31:00.852Z,18.82
2022-10-18T11:33:02.374Z,18.9
2022-10-18T11:35:03.830Z,18.9
2022-10-18T11:37:26.193Z,19.07
2022-10-18T11:39:06.335Z,19.04
2022-10-18T11:41:07.845Z,18.88
2022-10-18T11:43:09.419Z,19
2022-10-18T11:45:10.964Z,19.02
2022-10-18T11:47:11.950Z,18.76
2022-10-18T11:49:13.389Z,18.81
2022-10-18T11:51:15.002Z,18.64
2022-10-18T11:53:15.817Z,18.51
2022-10-18T11:55:16.973Z,18.66
2022-10-18T11:57:17.935Z,18.64
2022-10-18T11:59:19.412Z,18.73
2022-10-18T12:01:23.427Z,18.77
2022-10-18T12:03:22.271Z,18.83
2022-10-18T12:05:24.417Z,19.01
2022-10-18T12:07:27.888Z,19.02
2022-10-18T12:09:26.640Z,19.26
2022-10-18T12:11:28.522Z,19.53
2022-10-18T12:13:30.150Z,19.48
2022-10-18T12:15:31.923Z,19.24
2022-10-18T12:17:43.092Z,19.27
2022-10-18T12:19:34.164Z,19.21
2022-10-18T12:21:35.938Z,19.22
2022-10-18T12:23:36.818Z,19.1
2022-10-18T12:25:38.491Z,19.26
2022-10-18T12:27:39.301Z,19.32
2022-10-18T12:29:40.459Z,19.31
2022-10-18T12:31:42.042Z,19.25
2022-10-18T12:33:43.374Z,19.11
2022-10-18T12:35:44.558Z,19.12
2022-10-18T12:37:45.695Z,19.14
2022-10-18T12:40:05.306Z,19.32
2022-10-18T12:41:48.390Z,19.19
2022-10-18T12:43:49.940Z,19.46
2022-10-18T12:45:51.532Z,19.35
2022-10-18T12:47:53.222Z,19.36
2022-10-18T12:49:54.455Z,19.39
2022-10-18T12:51:55.437Z,19.56
2022-10-18T12:53:56.860Z,19.57
2022-10-18T12:55:57.687Z,19.79
2022-10-18T12:57:58.772Z,19.92
2022-10-18T12:59:59.541Z,19.96
2022-10-18T13:02:00.929Z,19.56
2022-10-18T13:04:01.799Z,19.51
2022-10-18T13:06:06.366Z,19.56
2022-10-18T13:08:03.867Z,19.45
2022-10-18T13:10:05.494Z,19.5
2022-10-18T13:12:06.668Z,19.5
2022-10-18T13:14:08.205Z,19.32
2022-10-18T13:16:09.544Z,19.37
2022-10-18T13:18:10.962Z,19.48
2022-10-18T13:20:25.367Z,19.48
2022-10-18T13:22:13.431Z,19.52
2022-10-18T13:24:14.814Z,19.34
2022-10-18T13:26:15.605Z,19.44
2022-10-18T13:28:16.879Z,19.45
2022-10-18T13:30:17.746Z,19.31
2022-10-18T13:32:19.033Z,19.3
2022-10-18T13:34:20.515Z,19.24
2022-10-18T13:36:22.680Z,19.2
2022-10-18T13:38:22.673Z,18.89
2022-10-18T13:40:23.726Z,18.76
2022-10-18T13:42:24.625Z,18.59
2022-10-18T13:44:25.989Z,18.47
2022-10-18T13:46:27.714Z,18.44
2022-10-18T13:48:28.821Z,18.35
2022-10-18T13:50:30.017Z,18.3
2022-10-18T13:52:31.378Z,18.25
2022-10-18T13:54:32.041Z,18.2
2022-10-18T13:56:33.280Z,18.2
2022-10-18T13:58:34.661Z,18.15
2022-10-18T14:00:35.844Z,18.08
2022-10-18T14:02:50.870Z,17.97
2022-10-18T14:04:38.595Z,17.81
2022-10-18T14:06:39.439Z,17.79
2022-10-18T14:08:40.256Z,17.64
2022-10-18T14:10:50.423Z,17.53
2022-10-18T14:12:43.101Z,17.53
2022-10-18T14:14:44.677Z,17.41
2022-10-18T14:16:45.824Z,17.36
2022-10-18T14:18:47.631Z,17.3
2022-10-18T14:21:08.869Z,17.26
2022-10-18T14:22:50.923Z,17.28
2022-10-18T14:24:52.195Z,17.24
2022-10-18T14:26:53.222Z,17.14
2022-10-18T14:28:59.793Z,17.08
2022-10-18T14:30:56.688Z,17.04
2022-10-18T14:32:57.880Z,17.06
2022-10-18T14:35:30.931Z,17.06
2022-10-18T14:37:01.194Z,17.07
2022-10-18T14:39:02.342Z,17.09
2022-10-18T14:41:04.041Z,17.09
2022-10-18T14:43:04.904Z,17.13
2022-10-18T14:45:06.309Z,17.12
2022-10-18T14:47:07.874Z,17.14
2022-10-18T14:49:09.126Z,17.13
2022-10-18T14:51:53.772Z,17.23
2022-10-18T14:53:55.099Z,17.08
2022-10-18T14:55:56.143Z,17.1
2022-10-18T14:57:57.124Z,17.12
2022-10-18T14:59:58.596Z,17.1
2022-10-18T15:02:00.353Z,17.11
2022-10-18T15:04:01.396Z,17.11
2022-10-18T15:06:02.357Z,17.07
2022-10-18T15:08:03.754Z,17.09
2022-10-18T15:10:05.298Z,17.04
2022-10-18T15:12:07.009Z,17.04
2022-10-18T15:14:08.269Z,17.04
2022-10-18T15:16:09.906Z,16.98
2022-10-18T15:18:10.786Z,16.94
2022-10-18T15:20:12.661Z,16.89
2022-10-18T15:22:30.559Z,16.95
2022-10-18T15:24:15.112Z,16.95
2022-10-18T15:26:16.310Z,16.93
2022-10-18T15:28:18.150Z,16.86
2022-10-18T15:30:19.636Z,16.89
2022-10-18T15:32:21.269Z,16.9
2022-10-18T15:34:22.181Z,16.86
2022-10-18T15:36:23.308Z,16.91
2022-10-18T15:38:25.155Z,16.89
2022-10-18T15:40:25.999Z,16.91
2022-10-18T15:42:27.619Z,16.9
2022-10-18T15:44:29.355Z,16.87
2022-10-18T15:46:30.275Z,16.85
2022-10-18T15:48:31.393Z,16.86
2022-10-18T15:50:32.371Z,16.83
2022-10-18T15:52:38.003Z,16.85
2022-10-18T15:54:36.033Z,16.85
2022-10-18T15:56:37.596Z,16.82
2022-10-18T15:58:38.596Z,16.83
2022-10-18T16:00:40.206Z,16.81
2022-10-18T16:02:41.389Z,16.82
2022-10-18T16:04:42.262Z,16.82
2022-10-18T16:06:43.646Z,16.79
2022-10-18T16:08:44.605Z,16.78
2022-10-18T16:10:46.029Z,16.76
2022-10-18T16:12:47.483Z,16.66
2022-10-18T16:14:49.317Z,16.6
2022-10-18T16:16:51.610Z,16.62
2022-10-18T16:18:52.317Z,16.62
2022-10-18T16:20:53.528Z,16.55
2022-10-18T16:22:54.818Z,16.55
2022-10-18T16:24:56.577Z,16.55
2022-10-18T16:26:58.327Z,16.52
2022-10-18T16:29:00.248Z,16.45
2022-10-18T16:31:01.497Z,16.41
2022-10-18T16:33:03.009Z,16.38
2022-10-18T16:35:04.519Z,16.36
2022-10-18T16:37:05.518Z,16.32
2022-10-18T16:39:07.120Z,16.29
2022-10-18T16:41:07.984Z,16.28
2022-10-18T16:43:09.475Z,16.28
2022-10-18T16:45:10.563Z,16.28
2022-10-18T16:47:12.213Z,16.25
2022-10-18T16:49:13.862Z,16.23
2022-10-18T16:51:14.772Z,16.2
2022-10-18T16:53:15.983Z,16.15
2022-10-18T16:55:17.578Z,16.12
2022-10-18T16:57:19.243Z,16.07
2022-10-18T16:59:20.892Z,16.04
2022-10-18T17:01:21.886Z,15.97
2022-10-18T17:03:22.891Z,15.99
2022-10-18T17:05:24.015Z,15.93
2022-10-18T17:07:25.142Z,15.87
2022-10-18T17:09:26.079Z,15.82
2022-10-18T17:11:27.223Z,15.81
2022-10-18T17:13:28.212Z,15.79
2022-10-18T17:15:31.501Z,15.79
2022-10-18T17:17:31.389Z,15.71
2022-10-18T17:19:32.725Z,15.71
2022-10-18T17:21:33.732Z,15.73
2022-10-18T17:23:35.344Z,15.66
2022-10-18T17:25:39.537Z,15.6
2022-10-18T17:27:37.602Z,15.45
2022-10-18T17:29:38.719Z,15.41
2022-10-18T17:31:39.625Z,15.47
2022-10-18T17:33:40.480Z,15.35
2022-10-18T17:37:45.349Z,15.38
2022-10-18T17:39:44.834Z,15.31
2022-10-18T17:41:46.146Z,15.22
2022-10-18T17:43:47.262Z,15.15
2022-10-18T17:45:48.588Z,15.07
2022-10-18T17:47:50.268Z,14.99
2022-10-18T17:49:51.809Z,15
2022-10-18T17:51:52.758Z,14.9
2022-10-18T17:53:53.625Z,14.82
2022-10-18T17:55:55.162Z,14.79
2022-10-18T17:57:56.214Z,14.79
2022-10-18T17:59:57.976Z,14.81
2022-10-18T18:01:59.648Z,14.81
2022-10-18T18:04:00.813Z,14.75
2022-10-18T18:06:02.360Z,14.57
2022-10-18T18:08:04.247Z,14.53
2022-10-18T18:10:04.773Z,14.47
2022-10-18T18:12:05.720Z,14.57
2022-10-18T18:14:06.618Z,14.56
2022-10-18T18:16:08.203Z,14.62
2022-10-18T18:18:09.410Z,14.62
2022-10-18T18:20:10.757Z,14.55
2022-10-18T18:22:12.354Z,14.53
2022-10-18T18:24:13.856Z,14.43
2022-10-18T18:26:15.346Z,14.38
2022-10-18T18:28:16.418Z,14.35
2022-10-18T18:30:18.144Z,14.32
2022-10-18T18:32:19.161Z,14.47
2022-10-18T18:34:20.827Z,14.46
2022-10-18T18:36:21.908Z,14.51
2022-10-18T18:38:23.557Z,14.48
2022-10-18T18:40:24.765Z,14.39
2022-10-18T18:42:25.789Z,14.27
2022-10-18T18:46:28.364Z,14.16
2022-10-18T18:48:30.028Z,14.15
2022-10-18T18:50:31.690Z,14.2
2022-10-18T18:52:33.325Z,14.18
2022-10-18T18:54:35.010Z,14.19
2022-10-18T18:56:36.481Z,14.23
2022-10-18T18:58:38.292Z,14.21
2022-10-18T19:00:41.677Z,14.18
2022-10-18T19:02:41.313Z,14.28
2022-10-18T19:04:42.809Z,14.29
2022-10-18T19:06:44.355Z,14.36
2022-10-18T19:08:46.146Z,14.29
2022-10-18T19:10:47.615Z,14.21
2022-10-18T19:12:49.081Z,14.3
2022-10-18T19:14:50.075Z,14.29
2022-10-18T19:16:51.650Z,14.32
2022-10-18T19:18:52.791Z,14.37
2022-10-18T19:20:54.124Z,14.41
2022-10-18T19:22:55.437Z,14.47
2022-10-18T19:24:56.672Z,14.39
2022-10-18T19:26:57.611Z,14.35
2022-10-18T19:28:59.083Z,14.28
2022-10-18T19:31:00.497Z,14.26
2022-10-18T19:33:02.812Z,14.2
2022-10-18T19:35:03.346Z,14.21
2022-10-18T19:37:04.302Z,14.17
2022-10-18T19:39:06.140Z,14.16
2022-10-18T19:41:07.018Z,14.16
2022-10-18T19:43:08.871Z,14.22
2022-10-18T19:45:09.838Z,14.2
2022-10-18T19:47:11.574Z,14.11
2022-10-18T19:49:12.631Z,14.13
2022-10-18T19:51:15.548Z,14.19
2022-10-18T19:53:15.461Z,14.19
2022-10-18T19:55:16.708Z,14.34
2022-10-18T19:57:17.695Z,13.98
2022-10-18T19:59:18.904Z,13.82
2022-10-18T20:01:20.216Z,13.75
2022-10-18T20:03:21.830Z,13.77
2022-10-18T20:05:23.533Z,13.8
2022-10-18T20:07:24.495Z,13.8
2022-10-18T20:09:25.624Z,13.84
2022-10-18T20:11:26.707Z,13.85
2022-10-18T20:13:27.935Z,13.91
2022-10-18T20:15:29.305Z,13.84
2022-10-18T20:17:30.613Z,14.06
2022-10-18T20:19:40.326Z,14.05
2022-10-18T20:21:34.003Z,13.93
2022-10-18T20:23:35.414Z,13.84
2022-10-18T20:25:37.149Z,13.79
2022-10-18T20:27:38.387Z,13.74
2022-10-18T20:29:39.664Z,13.66
2022-10-18T20:31:41.240Z,13.68
2022-10-18T20:33:42.169Z,13.73
2022-10-18T20:35:43.132Z,13.63
2022-10-18T20:37:44.318Z,13.62
2022-10-18T20:39:45.503Z,13.45
2022-10-18T20:41:47.004Z,13.35
2022-10-18T20:43:48.338Z,13.4
2022-10-18T20:45:49.499Z,13.55
2022-10-18T20:47:50.527Z,13.56
2022-10-18T20:49:52.060Z,13.54
2022-10-18T20:51:53.738Z,13.44
2022-10-18T20:53:55.394Z,13.32
2022-10-18T20:55:56.915Z,13.3
2022-10-18T20:57:58.262Z,13.28
2022-10-18T20:59:59.244Z,13.3
2022-10-18T21:02:00.247Z,13.23
2022-10-18T21:04:01.330Z,13.16
2022-10-18T21:06:02.561Z,13.21
2022-10-18T21:08:03.916Z,13.29
2022-10-18T21:10:05.509Z,13.31
2022-10-18T21:14:08.284Z,13.32
2022-10-18T21:16:09.820Z,13.34
2022-10-18T21:18:11.323Z,13.33
2022-10-18T21:20:12.857Z,13.4
2022-10-18T21:22:14.273Z,13.37
2022-10-18T21:24:15.578Z,13.44
2022-10-18T21:26:16.590Z,13.54
2022-10-18T21:28:18.429Z,13.57
2022-10-18T21:30:20.108Z,13.61
2022-10-18T21:32:21.559Z,13.69
2022-10-18T21:34:23.076Z,13.68
2022-10-18T21:35:23.000Z,13.72
2022-10-18T21:37:24.558Z,13.74
2022-10-18T21:39:25.922Z,13.73
2022-10-18T21:41:27.648Z,13.76
2022-10-18T21:43:29.262Z,13.72
2022-10-18T21:45:30.557Z,13.75
2022-10-18T21:47:32.106Z,13.73
2022-10-18T21:49:33.181Z,13.73
2022-10-18T21:51:34.582Z,13.71
2022-10-18T21:53:36.286Z,13.62
2022-10-18T21:55:37.424Z,13.53
2022-10-18T21:57:38.379Z,13.53
2022-10-18T21:59:39.278Z,13.54
2022-10-18T22:01:40.801Z,13.54
2022-10-18T22:03:42.306Z,13.53
2022-10-18T22:05:43.484Z,13.54
2022-10-18T22:07:44.396Z,13.55
2022-10-18T22:09:46.224Z,13.53
2022-10-18T22:11:48.049Z,13.5
2022-10-18T22:13:49.742Z,13.46
2022-10-18T22:15:51.166Z,13.37
2022-10-18T22:17:53.072Z,13.33
2022-10-18T22:19:54.585Z,13.3
2022-10-18T22:21:56.377Z,13.35
2022-10-18T22:23:57.701Z,13.46
2022-10-18T22:25:59.479Z,13.44
2022-10-18T22:28:00.828Z,13.4
2022-10-18T22:30:02.678Z,13.35
2022-10-18T22:32:03.746Z,13.3
2022-10-18T22:34:05.212Z,13.23
2022-10-18T22:36:06.807Z,13.26
2022-10-18T22:38:08.488Z,13.23
2022-10-18T22:40:10.230Z,13.24
2022-10-18T22:42:11.652Z,13.06
2022-10-18T22:44:12.590Z,12.9
2022-10-18T22:46:13.896Z,12.81
2022-10-18T22:48:15.056Z,12.82
2022-10-18T22:50:16.315Z,12.8
2022-10-18T22:52:17.793Z,12.81
2022-10-18T22:54:18.746Z,12.8
2022-10-18T22:56:19.902Z,12.8
2022-10-18T22:58:21.652Z,12.77
2022-10-18T23:00:23.497Z,12.69
2022-10-18T23:02:24.354Z,12.66
2022-10-18T23:04:25.947Z,12.61
2022-10-18T23:06:27.114Z,12.62
2022-10-18T23:08:28.033Z,12.54
2022-10-18T23:10:29.324Z,12.49
2022-10-18T23:12:30.475Z,12.48
2022-10-18T23:14:31.280Z,12.49
2022-10-18T23:16:33.092Z,12.63
2022-10-18T23:18:34.524Z,12.7
2022-10-18T23:20:36.257Z,12.78
2022-10-18T23:22:37.923Z,12.83
2022-10-18T23:24:39.635Z,12.78
2022-10-18T23:26:41.310Z,12.4
2022-10-18T23:28:42.566Z,12.37
2022-10-18T23:30:43.660Z,12.39
2022-10-18T23:32:44.901Z,12.43
2022-10-18T23:34:46.305Z,12.45
2022-10-18T23:36:47.977Z,12.52
2022-10-18T23:38:49.098Z,12.54
2022-10-18T23:40:51.039Z,12.58
2022-10-18T23:42:52.630Z,12.59
2022-10-18T23:44:54.307Z,12.64
2022-10-18T23:46:56.063Z,12.62
2022-10-18T23:48:57.368Z,12.59
2022-10-18T23:50:58.371Z,12.6
2022-10-18T23:52:59.496Z,12.63
2022-10-18T23:55:00.824Z,12.65
2022-10-18T23:57:02.301Z,12.66
2022-10-18T23:59:04.075Z,12.62
